createdAt,value
2023-04-20T00:01:15.778Z,100656.59
2023-04-20T00:03:42.869Z,100604.72
2023-04-20T00:06:09.751Z,100611.16
2023-04-20T00:08:36.638Z,100626.91
2023-04-20T00:11:03.775Z,100660.34
2023-04-20T00:13:30.731Z,100637.31
2023-04-20T00:16:17.592Z,100664.91
2023-04-20T00:19:09.488Z,100649.03
2023-04-20T00:21:36.489Z,100665.94
2023-04-20T00:24:03.597Z,100671.03
2023-04-20T00:26:30.541Z,100566.16
2023-04-20T00:29:18.818Z,100637.19
2023-04-20T00:31:59.363Z,100584.91
2023-04-20T00:34:46.606Z,100644.59
2023-04-20T00:37:47.592Z,100600.06
2023-04-20T00:40:28.367Z,100543.22
2023-04-20T00:42:55.337Z,100620.72
2023-04-20T00:45:23.777Z,100531.13
2023-04-20T00:47:51.629Z,100628.38
2023-04-20T00:50:18.579Z,100589.66
2023-04-20T00:52:45.974Z,100644.16
2023-04-20T00:55:13.448Z,100624.09
2023-04-20T00:57:41.724Z,100600.88
2023-04-20T01:00:09.731Z,100629.16
2023-04-20T01:02:36.766Z,100603.41
2023-04-20T01:05:04.084Z,100610.69
2023-04-20T01:07:31.404Z,100602.94
2023-04-20T01:09:58.691Z,100628.44
2023-04-20T01:12:25.765Z,100612.97
2023-04-20T01:14:52.635Z,100569.97
2023-04-20T01:17:20.959Z,100620.63
2023-04-20T01:19:49.198Z,100590.09
2023-04-20T01:22:22.871Z,100610.69
2023-04-20T01:24:49.885Z,100599.78
2023-04-20T01:27:36.733Z,100553.19
2023-04-20T01:30:37.627Z,100600.34
2023-04-20T01:33:38.654Z,100598.59
2023-04-20T01:36:25.616Z,100573.56
2023-04-20T01:39:17.316Z,100566.94
2023-04-20T01:41:44.585Z,100577.28
2023-04-20T01:44:11.669Z,100585.44
2023-04-20T01:46:41.610Z,100564.31
2023-04-20T01:49:08.886Z,100603.41
2023-04-20T01:51:37.511Z,100545.91
2023-04-20T01:54:04.464Z,100569.91
2023-04-20T01:56:31.434Z,100567.78
2023-04-20T01:58:59.042Z,100543.28
2023-04-20T02:01:27.179Z,100594.22
2023-04-20T02:03:54.465Z,100563.09
2023-04-20T02:06:21.517Z,100591.69
2023-04-20T02:08:48.699Z,100599.69
2023-04-20T02:11:15.702Z,100603.69
2023-04-20T02:13:42.691Z,100613.88
2023-04-20T02:16:09.666Z,100608.25
2023-04-20T02:18:37.523Z,100573.84
2023-04-20T02:21:05.312Z,100561.25
2023-04-20T02:23:32.402Z,100554.50
2023-04-20T02:25:59.306Z,100592.63
2023-04-20T02:28:26.510Z,100533.22
2023-04-20T02:30:53.523Z,100591.38
2023-04-20T02:33:21.775Z,100554.03
2023-04-20T02:35:49.134Z,100559.44
2023-04-20T02:38:29.720Z,100577.47
2023-04-20T02:41:23.633Z,100517.31
2023-04-20T02:44:04.538Z,100562.88
2023-04-20T02:46:34.338Z,100546.13
2023-04-20T02:49:03.519Z,100574.28
2023-04-20T02:51:33.353Z,100564.53
2023-04-20T02:54:00.373Z,100506.03
2023-04-20T02:56:29.077Z,100580.41
2023-04-20T02:59:01.064Z,100584.06
2023-04-20T03:02:23.833Z,100547.66
2023-04-20T03:05:05.896Z,100556.34
2023-04-20T03:07:40.632Z,100557.84
2023-04-20T03:10:10.225Z,100576.31
2023-04-20T03:12:49.847Z,100556.06
2023-04-20T03:15:23.382Z,100563.50
2023-04-20T03:18:16.066Z,100593.06
2023-04-20T03:20:43.529Z,100579.97
2023-04-20T03:23:11.546Z,100590.38
2023-04-20T03:25:38.734Z,100585.81
2023-04-20T03:28:23.663Z,100531.44
2023-04-20T03:31:06.604Z,100513.53
2023-04-20T03:33:33.723Z,100528.25
2023-04-20T03:36:21.681Z,100567.91
2023-04-20T03:39:23.702Z,100565.78
2023-04-20T03:42:20.316Z,100530.50
2023-04-20T03:44:48.969Z,100535.56
2023-04-20T03:47:15.913Z,100533.41
2023-04-20T03:49:42.920Z,100503.75
2023-04-20T03:52:11.084Z,100555.03
2023-04-20T03:54:38.125Z,100552.50
2023-04-20T03:57:05.121Z,100535.72
2023-04-20T03:59:32.443Z,100535.38
2023-04-20T04:02:02.816Z,100497.28
2023-04-20T04:04:30.156Z,100524.66
2023-04-20T04:06:58.698Z,100541.50
2023-04-20T04:09:28.421Z,100523.50
2023-04-20T04:11:55.422Z,100514.84
2023-04-20T04:14:24.056Z,100507.38
2023-04-20T04:16:51.045Z,100515.41
2023-04-20T04:19:18.862Z,100524.63
2023-04-20T04:21:46.141Z,100517.56
2023-04-20T04:24:15.370Z,100532.28
2023-04-20T04:27:05.703Z,100447.47
2023-04-20T04:29:38.746Z,100557.81
2023-04-20T04:32:09.708Z,100436.88
2023-04-20T04:34:38.633Z,100473.50
2023-04-20T04:37:25.723Z,100522.44
2023-04-20T04:40:26.712Z,100540.84
2023-04-20T04:43:10.351Z,100554.22
2023-04-20T04:45:41.036Z,100552.41
2023-04-20T04:48:12.494Z,100547.75
2023-04-20T04:50:40.025Z,100517.66
2023-04-20T04:53:07.734Z,100437.28
2023-04-20T04:55:34.714Z,100523.75
2023-04-20T04:58:01.837Z,100532.00
2023-04-20T05:00:48.730Z,100529.69
2023-04-20T05:03:49.889Z,100555.47
2023-04-20T05:06:24.553Z,100538.72
2023-04-20T05:08:51.555Z,100545.28
2023-04-20T05:11:18.541Z,100550.06
2023-04-20T05:14:05.768Z,100555.16
2023-04-20T05:16:46.292Z,100593.38
2023-04-20T05:19:13.329Z,100582.84
2023-04-20T05:21:40.585Z,100493.19
2023-04-20T05:24:07.662Z,100559.91
2023-04-20T05:26:54.773Z,100567.91
2023-04-20T05:29:35.579Z,100586.03
2023-04-20T05:32:02.663Z,100560.22
2023-04-20T05:34:29.837Z,100592.47
2023-04-20T05:37:18.760Z,100584.75
2023-04-20T05:39:59.347Z,100582.94
2023-04-20T05:42:26.281Z,100506.75
2023-04-20T05:45:13.793Z,100560.34
2023-04-20T05:48:14.762Z,100562.44
2023-04-20T05:51:15.748Z,100468.63
2023-04-20T05:54:17.785Z,100547.75
2023-04-20T05:56:44.757Z,100533.38
2023-04-20T05:59:11.854Z,100539.69
2023-04-20T06:01:38.878Z,100562.22
2023-04-20T06:04:06.155Z,100578.88
2023-04-20T06:06:33.366Z,100507.97
2023-04-20T06:09:00.586Z,100597.81
2023-04-20T06:11:27.545Z,100560.75
2023-04-20T06:13:54.575Z,100574.34
2023-04-20T06:16:21.599Z,100582.41
2023-04-20T06:18:48.862Z,100586.72
2023-04-20T06:21:19.614Z,100574.03
2023-04-20T06:23:46.750Z,100571.59
2023-04-20T06:26:13.804Z,100593.00
2023-04-20T06:28:40.817Z,100528.28
2023-04-20T06:31:07.962Z,100538.09
2023-04-20T06:33:35.170Z,100585.19
2023-04-20T06:36:21.799Z,100535.28
2023-04-20T06:39:16.404Z,100523.75
2023-04-20T06:41:43.987Z,100615.25
2023-04-20T06:44:13.850Z,100559.63
2023-04-20T06:46:40.803Z,100463.63
2023-04-20T06:49:27.789Z,100573.91
2023-04-20T06:52:28.806Z,100580.09
2023-04-20T06:55:09.916Z,100555.31
2023-04-20T06:57:43.842Z,100532.78
2023-04-20T07:00:11.777Z,100601.75
2023-04-20T07:02:49.416Z,100599.56
2023-04-20T07:05:17.346Z,100512.91
2023-04-20T07:07:44.985Z,100599.13
2023-04-20T07:10:14.265Z,100595.53
2023-04-20T07:13:01.850Z,100549.03
2023-04-20T07:16:02.903Z,100585.91
2023-04-20T07:18:43.573Z,100586.53
2023-04-20T07:21:10.496Z,100535.13
2023-04-20T07:23:37.463Z,100596.13
2023-04-20T07:26:04.708Z,100521.78
2023-04-20T07:28:51.846Z,100575.69
2023-04-20T07:31:35.205Z,100596.75
2023-04-20T07:34:02.493Z,100450.78
2023-04-20T07:36:29.984Z,100591.97
2023-04-20T07:38:56.992Z,100603.69
2023-04-20T07:41:23.944Z,100596.09
2023-04-20T07:43:51.579Z,100578.16
2023-04-20T07:46:38.877Z,100607.63
2023-04-20T07:49:39.851Z,100521.38
2023-04-20T07:52:33.953Z,100613.09
2023-04-20T07:55:15.765Z,100594.38
2023-04-20T07:57:42.769Z,100577.63
2023-04-20T08:00:10.378Z,100608.44
2023-04-20T08:02:40.951Z,100608.94
2023-04-20T08:05:10.413Z,100582.63
2023-04-20T08:07:38.041Z,100527.41
2023-04-20T08:10:06.612Z,100565.66
2023-04-20T08:12:53.867Z,100573.28
2023-04-20T08:15:34.457Z,100599.53
2023-04-20T08:18:01.433Z,100607.25
2023-04-20T08:20:28.478Z,100646.16
2023-04-20T08:22:55.490Z,100577.75
2023-04-20T08:25:23.698Z,100572.56
2023-04-20T08:28:19.254Z,100644.16
2023-04-20T08:31:04.512Z,100612.44
2023-04-20T08:33:31.733Z,100666.59
2023-04-20T08:35:58.713Z,100645.63
2023-04-20T08:38:33.801Z,100606.06
2023-04-20T08:41:01.801Z,100633.69
2023-04-20T08:43:29.026Z,100564.69
2023-04-20T08:46:01.814Z,100660.28
2023-04-20T08:48:35.684Z,100683.19
2023-04-20T08:51:04.047Z,100586.50
2023-04-20T08:53:32.383Z,100632.94
2023-04-20T08:55:59.765Z,100663.56
2023-04-20T08:58:31.268Z,100638.00
2023-04-20T09:01:00.816Z,100669.88
2023-04-20T09:03:35.622Z,100671.91
2023-04-20T09:06:03.286Z,100606.88
2023-04-20T09:08:42.513Z,100662.59
2023-04-20T09:11:43.877Z,100658.78
2023-04-20T09:14:55.903Z,100614.72
2023-04-20T09:17:49.663Z,100613.28
2023-04-20T09:20:16.622Z,100577.63
2023-04-20T09:22:43.558Z,100623.06
2023-04-20T09:25:17.700Z,100658.31
2023-04-20T09:28:12.868Z,100653.50
2023-04-20T09:30:53.403Z,100632.75
2023-04-20T09:33:20.417Z,100625.94
2023-04-20T09:35:47.385Z,100647.63
2023-04-20T09:38:17.509Z,100634.47
2023-04-20T09:40:44.693Z,100592.44
2023-04-20T09:43:24.743Z,100661.06
2023-04-20T09:45:52.511Z,100625.88
2023-04-20T09:48:21.035Z,100633.47
2023-04-20T09:50:50.978Z,100648.94
2023-04-20T09:53:19.410Z,100636.47
2023-04-20T09:55:48.651Z,100651.56
2023-04-20T09:58:19.535Z,100653.84
2023-04-20T10:01:06.960Z,100621.72
2023-04-20T10:03:47.737Z,100598.97
2023-04-20T10:06:23.378Z,100647.53
2023-04-20T10:08:51.920Z,100646.94
2023-04-20T10:11:53.285Z,100639.72
2023-04-20T10:14:37.395Z,100598.53
2023-04-20T10:17:09.640Z,100638.63
2023-04-20T10:19:41.613Z,100643.84
2023-04-20T10:22:10.651Z,100634.94
2023-04-20T10:24:41.036Z,100632.84
2023-04-20T10:27:19.438Z,100619.25
2023-04-20T10:30:06.911Z,100625.44
2023-04-20T10:33:16.999Z,100626.16
2023-04-20T10:35:59.398Z,100574.28
2023-04-20T10:38:33.580Z,100586.13
2023-04-20T10:41:11.544Z,100597.88
2023-04-20T10:43:42.283Z,100527.41
2023-04-20T10:46:19.460Z,100611.28
2023-04-20T10:48:52.983Z,100606.72
2023-04-20T10:51:20.515Z,100607.88
2023-04-20T10:54:01.397Z,100595.13
2023-04-20T10:56:28.467Z,100596.34
2023-04-20T10:59:05.785Z,100578.06
2023-04-20T11:01:33.046Z,100584.16
2023-04-20T11:04:00.240Z,100565.22
2023-04-20T11:06:28.685Z,100575.81
2023-04-20T11:08:55.818Z,100555.16
2023-04-20T11:11:43.940Z,100538.69
2023-04-20T11:14:43.305Z,100585.59
2023-04-20T11:17:10.276Z,100597.66
2023-04-20T11:19:37.378Z,100575.13
2023-04-20T11:22:06.566Z,100605.91
2023-04-20T11:24:34.801Z,100559.25
2023-04-20T11:27:03.046Z,100590.22
2023-04-20T11:29:50.944Z,100592.03
2023-04-20T11:32:36.473Z,100557.28
2023-04-20T11:35:11.152Z,100580.66
2023-04-20T11:37:51.617Z,100596.66
2023-04-20T11:43:59.951Z,100583.34
2023-04-20T11:46:27.024Z,100535.31
2023-04-20T11:48:54.292Z,100567.28
2023-04-20T11:51:40.987Z,100558.41
2023-04-20T11:54:41.988Z,100488.78
2023-04-20T11:57:24.095Z,100519.94
2023-04-20T11:59:51.247Z,100582.16
2023-04-20T12:02:18.500Z,100473.88
2023-04-20T12:04:45.685Z,100541.09
2023-04-20T12:07:12.685Z,100559.00
2023-04-20T12:09:40.478Z,100522.03
2023-04-20T12:12:28.990Z,100529.94
2023-04-20T12:15:09.930Z,100498.78
2023-04-20T12:17:36.920Z,100531.13
2023-04-20T12:20:08.921Z,100512.28
2023-04-20T12:22:35.896Z,100468.13
2023-04-20T12:25:02.991Z,100514.81
2023-04-20T12:27:50.140Z,100527.72
2023-04-20T12:30:39.527Z,100493.56
2023-04-20T12:33:07.074Z,100517.22
2023-04-20T12:35:34.021Z,100505.63
2023-04-20T12:38:01.041Z,100441.63
2023-04-20T12:40:28.139Z,100548.69
2023-04-20T12:43:15.048Z,100447.34
2023-04-20T12:46:16.067Z,100520.22
2023-04-20T12:49:17.273Z,100507.03
2023-04-20T12:52:18.027Z,100521.78
2023-04-20T12:55:21.001Z,100514.31
2023-04-20T12:58:23.022Z,100545.53
2023-04-20T13:01:04.028Z,100515.47
2023-04-20T13:03:31.358Z,100408.97
2023-04-20T13:06:19.069Z,100521.81
2023-04-20T13:09:01.251Z,100537.63
2023-04-20T13:11:28.315Z,100507.44
2023-04-20T13:13:58.161Z,100484.06
2023-04-20T13:16:45.047Z,100510.56
2023-04-20T13:19:46.023Z,100494.75
2023-04-20T13:22:57.289Z,100510.94
2023-04-20T13:25:48.953Z,100497.09
2023-04-20T13:28:36.044Z,100488.06
2023-04-20T13:31:16.650Z,100421.03
2023-04-20T13:33:43.612Z,100501.28
2023-04-20T13:36:10.615Z,100335.28
2023-04-20T13:38:37.608Z,100396.94
2023-04-20T13:41:04.774Z,100466.56
2023-04-20T13:43:52.031Z,100379.34
2023-04-20T13:46:53.046Z,100449.09
2023-04-20T13:49:33.718Z,100456.47
2023-04-20T13:52:54.048Z,100483.00
2023-04-20T13:55:55.090Z,100429.09
2023-04-20T13:58:35.751Z,100417.00
2023-04-20T14:01:17.395Z,100485.75
2023-04-20T14:03:44.696Z,100493.72
2023-04-20T14:06:11.852Z,100441.69
2023-04-20T14:08:38.807Z,100380.13
2023-04-20T14:11:26.056Z,100463.31
2023-04-20T14:14:06.955Z,100419.91
2023-04-20T14:16:34.006Z,100421.56
2023-04-20T14:19:01.085Z,100332.44
2023-04-20T14:21:28.012Z,100326.63
2023-04-20T14:23:56.058Z,100434.19
2023-04-20T14:26:23.164Z,100416.56
2023-04-20T14:29:11.078Z,100354.03
2023-04-20T14:31:52.262Z,100403.50
2023-04-20T14:34:40.124Z,100396.47
2023-04-20T14:37:21.210Z,100425.53
2023-04-20T14:39:48.652Z,100444.94
2023-04-20T14:42:15.846Z,100416.66
2023-04-20T14:45:03.138Z,100425.38
2023-04-20T14:47:44.213Z,100453.50
2023-04-20T14:50:11.503Z,100435.16
2023-04-20T14:52:59.046Z,100451.69
2023-04-20T14:56:00.126Z,100406.75
2023-04-20T14:58:42.506Z,100391.75
2023-04-20T15:01:09.500Z,100359.88
2023-04-20T15:03:36.744Z,100418.09
2023-04-20T15:06:04.105Z,100258.38
2023-04-20T15:08:31.135Z,100442.75
2023-04-20T15:11:18.086Z,100325.44
2023-04-20T15:14:19.293Z,100408.34
2023-04-20T15:16:59.807Z,100443.38
2023-04-20T15:19:26.834Z,100394.16
2023-04-20T15:21:53.738Z,100442.41
2023-04-20T15:24:20.969Z,100377.88
2023-04-20T15:27:08.136Z,100439.03
2023-04-20T15:30:10.123Z,100437.25
2023-04-20T15:32:50.836Z,100442.78
2023-04-20T15:35:17.767Z,100374.84
2023-04-20T15:37:46.324Z,100437.59
2023-04-20T15:40:14.341Z,100434.84
2023-04-20T15:42:41.467Z,100437.44
2023-04-20T15:45:28.102Z,100380.06
2023-04-20T15:48:29.172Z,100399.31
2023-04-20T15:51:31.161Z,100401.94
2023-04-20T15:54:32.138Z,100347.16
2023-04-20T15:57:09.761Z,100447.56
2023-04-20T15:59:37.020Z,100457.78
2023-04-20T16:02:04.026Z,100447.31
2023-04-20T16:04:31.091Z,100336.28
2023-04-20T16:06:58.315Z,100390.91
2023-04-20T16:09:45.147Z,100395.16
2023-04-20T16:12:46.189Z,100440.13
2023-04-20T16:15:26.985Z,100439.19
2023-04-20T16:17:54.575Z,100329.41
2023-04-20T16:20:21.854Z,100475.88
2023-04-20T16:22:48.776Z,100420.38
2023-04-20T16:25:23.012Z,100420.19
2023-04-20T16:28:10.206Z,100466.19
2023-04-20T16:30:51.001Z,100431.13
2023-04-20T16:33:39.139Z,100425.81
2023-04-20T16:36:19.803Z,100423.09
2023-04-20T16:38:46.915Z,100474.06
2023-04-20T16:41:13.904Z,100408.50
2023-04-20T16:43:41.120Z,100481.59
2023-04-20T16:46:29.278Z,100406.88
2023-04-20T16:49:30.156Z,100494.56
2023-04-20T16:52:31.151Z,100476.03
2023-04-20T16:55:11.842Z,100479.53
2023-04-20T16:57:38.958Z,100349.84
2023-04-20T17:00:07.360Z,100501.88
2023-04-20T17:02:36.266Z,100420.84
2023-04-20T17:05:04.941Z,100514.81
2023-04-20T17:07:31.937Z,100493.31
2023-04-20T17:10:19.207Z,100469.19
2023-04-20T17:12:59.846Z,100485.59
2023-04-20T17:15:49.159Z,100472.34
2023-04-20T17:18:50.210Z,100473.81
2023-04-20T17:21:52.161Z,100471.22
2023-04-20T17:24:20.942Z,100537.56
2023-04-20T17:26:48.043Z,100398.09
2023-04-20T17:29:37.161Z,100539.88
2023-04-20T17:32:17.964Z,100521.13
2023-04-20T17:34:48.390Z,100482.28
2023-04-20T17:37:15.669Z,100539.66
2023-04-20T17:39:43.462Z,100542.94
2023-04-20T17:42:10.965Z,100512.91
2023-04-20T17:44:38.474Z,100542.31
2023-04-20T17:47:06.545Z,100488.34
2023-04-20T17:49:35.042Z,100480.88
2023-04-20T17:52:02.525Z,100499.81
2023-04-20T17:54:29.607Z,100521.69
2023-04-20T17:56:58.218Z,100544.81
2023-04-20T17:59:25.197Z,100433.16
2023-04-20T18:01:52.255Z,100511.63
2023-04-20T18:04:19.811Z,100546.84
2023-04-20T18:06:47.230Z,100438.28
2023-04-20T18:09:34.220Z,100551.09
2023-04-20T18:12:14.932Z,100530.88
2023-04-20T18:14:45.262Z,100560.28
2023-04-20T18:17:12.325Z,100478.84
2023-04-20T18:19:59.211Z,100520.13
2023-04-20T18:23:00.265Z,100538.53
2023-04-20T18:25:42.711Z,100516.50
2023-04-20T18:28:30.225Z,100537.50
2023-04-20T18:31:11.385Z,100593.28
2023-04-20T18:33:38.812Z,100563.22
2023-04-20T18:36:06.087Z,100590.59
2023-04-20T18:38:35.260Z,100578.03
2023-04-20T18:41:22.211Z,100598.94
2023-04-20T18:44:23.362Z,100606.63
2023-04-20T18:47:25.262Z,100593.41
2023-04-20T18:50:06.989Z,100651.28
2023-04-20T18:52:34.127Z,100633.13
2023-04-20T18:55:01.428Z,100630.22
2023-04-20T18:57:29.151Z,100647.94
2023-04-20T18:59:56.566Z,100506.97
2023-04-20T19:02:24.111Z,100659.22
2023-04-20T19:04:51.327Z,100606.53
2023-04-20T19:07:18.598Z,100616.41
2023-04-20T19:09:45.605Z,100555.09
2023-04-20T19:12:12.672Z,100624.06
2023-04-20T19:15:00.282Z,100653.25
2023-04-20T19:18:01.377Z,100653.59
2023-04-20T19:20:42.059Z,100689.16
2023-04-20T19:23:09.035Z,100649.84
2023-04-20T19:25:38.080Z,100676.00
2023-04-20T19:28:25.259Z,100663.69
2023-04-20T19:31:27.295Z,100714.88
2023-04-20T19:34:08.742Z,100686.13
2023-04-20T19:36:35.694Z,100675.41
2023-04-20T19:39:03.295Z,100712.88
2023-04-20T19:41:50.343Z,100655.16
2023-04-20T19:44:51.363Z,100627.22
2023-04-20T19:47:52.390Z,100645.63
2023-04-20T19:50:33.901Z,100709.94
2023-04-20T19:53:01.328Z,100712.66
2023-04-20T19:55:28.457Z,100604.84
2023-04-20T19:57:55.520Z,100534.47
2023-04-20T20:00:22.662Z,100696.97
2023-04-20T20:02:49.781Z,100702.53
2023-04-20T20:05:17.046Z,100579.56
2023-04-20T20:07:44.099Z,100535.34
2023-04-20T20:10:11.096Z,100716.19
2023-04-20T20:12:38.273Z,100666.31
2023-04-20T20:15:05.736Z,100703.25
2023-04-20T20:17:32.965Z,100669.69
2023-04-20T20:20:00.427Z,100666.53
2023-04-20T20:22:27.518Z,100690.31
2023-04-20T20:24:54.782Z,100721.75
2023-04-20T20:27:42.286Z,100729.09
2023-04-20T20:30:41.921Z,100697.91
2023-04-20T20:33:09.058Z,100721.13
2023-04-20T20:35:56.280Z,100718.50
2023-04-20T20:38:57.306Z,100658.16
2023-04-20T20:41:56.291Z,100701.19
2023-04-20T20:44:23.248Z,100725.97
2023-04-20T20:46:50.231Z,100584.97
2023-04-20T20:49:17.394Z,100719.31
2023-04-20T20:51:44.622Z,100679.59
2023-04-20T20:54:11.774Z,100652.22
2023-04-20T20:56:38.694Z,100647.31
2023-04-20T20:59:05.795Z,100687.78
2023-04-20T21:01:32.920Z,100637.88
2023-04-20T21:04:00.241Z,100684.16
2023-04-20T21:06:27.482Z,100702.88
2023-04-20T21:08:54.780Z,100681.69
2023-04-20T21:11:21.959Z,100685.19
2023-04-20T21:13:49.063Z,100676.63
2023-04-20T21:16:15.982Z,100648.19
2023-04-20T21:18:42.967Z,100699.09
2023-04-20T21:21:13.631Z,100686.22
2023-04-20T21:23:40.741Z,100694.91
2023-04-20T21:26:27.312Z,100718.19
2023-04-20T21:29:29.956Z,100635.41
2023-04-20T21:32:10.378Z,100660.09
2023-04-20T21:34:37.471Z,100621.94
2023-04-20T21:37:24.326Z,100752.47
2023-04-20T21:40:25.339Z,100691.97
2023-04-20T21:43:05.824Z,100732.41
2023-04-20T21:45:32.849Z,100711.78
2023-04-20T21:47:59.768Z,100745.34
2023-04-20T21:50:28.613Z,100760.06
2023-04-20T21:52:55.634Z,100704.50
2023-04-20T21:55:22.588Z,100740.09
2023-04-20T21:57:49.640Z,100743.47
2023-04-20T22:00:18.222Z,100703.22
2023-04-20T22:02:45.881Z,100733.84
2023-04-20T22:05:13.739Z,100723.16
2023-04-20T22:07:40.931Z,100666.69
2023-04-20T22:10:08.710Z,100740.44
2023-04-20T22:12:40.365Z,100726.91
2023-04-20T22:15:12.331Z,100718.97
2023-04-20T22:17:40.695Z,100749.25
2023-04-20T22:20:29.387Z,100758.94
2023-04-20T22:23:09.986Z,100766.03
2023-04-20T22:25:37.403Z,100743.41
2023-04-20T22:28:24.419Z,100777.53
2023-04-20T22:31:05.230Z,100724.53
2023-04-20T22:33:32.367Z,100764.69
2023-04-20T22:36:19.383Z,100765.00
2023-04-20T22:39:20.663Z,100767.50
2023-04-20T22:42:07.788Z,100747.84
2023-04-20T22:44:34.796Z,100637.38
2023-04-20T22:47:02.352Z,100722.47
2023-04-20T22:49:29.739Z,100759.72
2023-04-20T22:51:57.642Z,100702.47
2023-04-20T22:54:25.306Z,100769.31
2023-04-20T22:56:52.464Z,100723.03
2023-04-20T22:59:20.061Z,100734.97
2023-04-20T23:01:47.264Z,100726.72
2023-04-20T23:04:14.337Z,100779.78
2023-04-20T23:06:45.221Z,100788.00
2023-04-20T23:09:13.427Z,100739.59
2023-04-20T23:11:40.719Z,100733.28
2023-04-20T23:14:09.216Z,100769.44
2023-04-20T23:16:36.291Z,100661.53
2023-04-20T23:19:03.292Z,100765.97
2023-04-20T23:21:31.388Z,100760.09
2023-04-20T23:23:58.634Z,100635.66
2023-04-20T23:26:25.887Z,100647.63
2023-04-20T23:29:13.422Z,100751.31
2023-04-20T23:31:54.232Z,100702.28
2023-04-20T23:34:21.271Z,100760.28
2023-04-20T23:37:09.442Z,100738.56
2023-04-20T23:40:13.449Z,100755.09
2023-04-20T23:42:55.601Z,100765.28
2023-04-20T23:45:23.236Z,100617.34
2023-04-20T23:47:50.548Z,100709.88
2023-04-20T23:50:17.630Z,100745.09
2023-04-20T23:52:44.756Z,100694.59
2023-04-20T23:55:11.817Z,100687.34
2023-04-20T23:57:38.943Z,100731.13
